Time;durP1;ratioP1;P1;durP2;ratioP2;P2;SDS_P1;SDS_P2;PMS_P1;PMS_P2;Temp;Humidity;BMP_temperature;BMP_pressure;BME280_temperature;BME280_humidity;BME280_pressure;Samples;Min_cycle;Max_cycle;Signal;HPM_P1;HPM_P2
2022/04/03 00:00:43;;;;;;;4.20;1.77;;;;;;;6.78;64.36;93706.31;5114601;28;20032;-70
2022/04/03 00:03:09;;;;;;;2.65;1.42;;;;;;;6.57;63.53;93694.28;5117842;27;20017;-69
2022/04/03 00:05:38;;;;;;;3.67;1.80;;;;;;;6.45;61.23;93685.00;5133612;27;20043;-69
2022/04/03 00:08:05;;;;;;;2.35;1.60;;;;;;;6.42;62.78;93690.41;5133453;27;20030;-70
2022/04/03 00:10:30;;;;;;;3.10;1.90;;;;;;;6.37;62.75;93679.66;5133594;27;20035;-70
2022/04/03 00:12:55;;;;;;;5.30;2.40;;;;;;;6.36;62.47;93676.28;5134623;27;20026;-70
2022/04/03 00:15:21;;;;;;;3.05;2.13;;;;;;;6.46;62.15;93690.03;5118936;27;20032;-70
2022/04/03 00:17:47;;;;;;;2.65;2.00;;;;;;;6.55;63.27;93695.38;5112772;28;20477;-70
2022/04/03 00:20:12;;;;;;;4.05;2.00;;;;;;;6.62;64.19;93696.47;5098348;27;20031;-70
2022/04/03 00:22:38;;;;;;;3.08;2.22;;;;;;;6.66;64.36;93693.50;5129149;27;20031;-69
2022/04/03 00:25:04;;;;;;;2.30;1.80;;;;;;;6.67;63.41;93689.97;5096908;27;20092;-70
2022/04/03 00:27:29;;;;;;;3.80;2.00;;;;;;;6.76;64.55;93687.56;5099021;27;20110;-70
2022/04/03 00:29:55;;;;;;;2.90;2.00;;;;;;;6.81;63.25;93687.97;5134362;27;20497;-70
2022/04/03 00:32:20;;;;;;;4.30;2.08;;;;;;;6.77;64.65;93684.00;5132908;27;20035;-70
2022/04/03 00:34:46;;;;;;;2.85;1.80;;;;;;;6.80;64.60;93678.59;5112850;27;20481;-70
2022/04/03 00:37:11;;;;;;;2.83;2.03;;;;;;;6.77;65.47;93689.19;5127026;27;20085;-70
2022/04/03 00:39:37;;;;;;;3.47;1.90;;;;;;;6.74;64.67;93673.97;5115746;27;20506;-70
2022/04/03 00:42:07;;;;;;;3.30;2.03;;;;;;;6.69;61.95;93667.44;5125050;27;20081;-70
2022/04/03 00:44:35;;;;;;;1.77;1.20;;;;;;;6.65;61.79;93662.66;5095762;28;20497;-70
2022/04/03 00:47:00;;;;;;;2.38;1.60;;;;;;;6.64;63.17;93674.75;5113359;27;20102;-70
2022/04/03 00:49:26;;;;;;;3.22;1.85;;;;;;;6.58;64.33;93670.13;5113323;28;20038;-70
2022/04/03 00:51:51;;;;;;;5.07;2.50;;;;;;;6.63;65.62;93677.44;5087105;28;20050;-70
2022/04/03 00:54:16;;;;;;;2.65;1.90;;;;;;;6.63;65.86;93677.44;5094480;28;20028;-70
2022/04/03 00:56:42;;;;;;;3.95;2.17;;;;;;;6.58;65.94;93677.88;5113180;28;20039;-70
2022/04/03 00:59:09;;;;;;;3.28;2.35;;;;;;;6.40;65.52;93662.16;5119181;27;20026;-70
2022/04/03 01:01:34;;;;;;;2.90;2.03;;;;;;;6.47;66.13;93680.53;5133647;27;20064;-70
2022/04/03 01:04:00;;;;;;;4.60;1.77;;;;;;;6.42;66.14;93674.94;5133746;27;20024;-70
2022/04/03 01:06:25;;;;;;;3.75;1.80;;;;;;;6.39;65.27;93675.22;5115272;27;20495;-70
2022/04/03 01:08:50;;;;;;;3.13;1.75;;;;;;;6.24;65.52;93652.34;5132289;27;20038;-70
2022/04/03 01:11:20;;;;;;;2.50;1.80;;;;;;;6.27;65.24;93643.53;5122035;27;20089;-70
2022/04/03 01:13:46;;;;;;;5.22;1.90;;;;;;;6.26;64.19;93650.44;5111741;28;20066;-71
2022/04/03 01:16:12;;;;;;;2.40;1.80;;;;;;;6.26;64.58;93660.75;5111798;28;20059;-70
2022/04/03 01:18:37;;;;;;;3.05;1.75;;;;;;;6.28;65.22;93667.56;5094628;28;20032;-70
2022/04/03 01:21:03;;;;;;;4.75;1.73;;;;;;;6.22;66.00;93667.13;5126183;27;20069;-70
2022/04/03 01:23:28;;;;;;;4.85;2.00;;;;;;;6.25;65.24;93674.59;5114985;27;20076;-70
2022/04/03 01:25:53;;;;;;;2.95;2.33;;;;;;;6.23;65.50;93673.91;5131824;27;20428;-70
2022/04/03 01:28:19;;;;;;;3.13;2.53;;;;;;;6.16;64.91;93659.91;5133310;27;20030;-70
2022/04/03 01:30:44;;;;;;;4.38;2.30;;;;;;;6.09;64.39;93655.38;5122430;27;20092;-70
2022/04/03 01:33:10;;;;;;;4.80;2.88;;;;;;;6.15;65.76;93668.56;5111364;28;20023;-70
2022/04/03 01:35:35;;;;;;;5.25;3.10;;;;;;;6.21;66.07;93682.72;5128309;27;20031;-70
2022/04/03 01:38:00;;;;;;;3.30;2.22;;;;;;;6.23;66.73;93698.88;5131785;27;20027;-70
2022/04/03 01:40:26;;;;;;;3.17;2.05;;;;;;;6.17;66.75;93694.25;5115219;27;20028;-70
2022/04/03 01:42:51;;;;;;;4.70;3.30;;;;;;;6.12;65.50;93694.59;5112356;28;20034;-70
2022/04/03 01:45:17;;;;;;;4.53;3.28;;;;;;;6.14;65.66;93703.03;5112513;28;20027;-70
2022/04/03 01:47:42;;;;;;;4.78;3.42;;;;;;;6.18;66.49;93708.75;5110911;28;20046;-70
2022/04/03 01:50:08;;;;;;;4.07;2.97;;;;;;;6.18;67.09;93709.56;5121051;27;20031;-70
2022/04/03 01:52:33;;;;;;;6.75;3.83;;;;;;;6.24;64.92;93709.09;5093918;28;20114;-70
2022/04/03 01:54:59;;;;;;;5.80;3.08;;;;;;;6.24;64.56;93706.50;5110818;28;20036;-71
2022/04/03 01:57:25;;;;;;;4.03;2.63;;;;;;;6.31;65.64;93708.56;5112090;27;20051;-70
2022/04/03 01:59:51;;;;;;;3.22;2.22;;;;;;;6.32;65.99;93705.03;5131087;27;20031;-70
2022/04/03 02:02:16;;;;;;;2.70;1.88;;;;;;;6.25;66.23;93684.91;5131242;27;20470;-71
2022/04/03 02:04:42;;;;;;;3.35;2.00;;;;;;;6.34;66.21;93698.00;5113648;28;20120;-70
2022/04/03 02:07:07;;;;;;;3.53;1.85;;;;;;;6.24;66.11;93687.59;5130835;27;20023;-71
2022/04/03 02:09:32;;;;;;;2.92;1.52;;;;;;;6.27;65.71;93692.53;5117829;27;20036;-70
2022/04/03 02:11:58;;;;;;;3.15;1.70;;;;;;;6.24;64.92;93688.44;5111741;28;20024;-71
2022/04/03 02:14:25;;;;;;;2.83;1.50;;;;;;;6.14;64.71;93672.09;5093591;28;20035;-71
2022/04/03 02:17:00;;;;;;;4.22;1.42;;;;;;;6.03;62.39;93673.00;5077000;27;20515;-70
2022/04/03 02:19:25;;;;;;;3.30;2.10;;;;;;;6.00;62.81;93669.84;5114003;27;20483;-70
2022/04/03 02:21:51;;;;;;;3.75;1.60;;;;;;;5.94;59.99;93670.38;5132165;27;20019;-70
2022/04/03 02:24:16;;;;;;;3.25;1.45;;;;;;;5.86;62.41;93659.84;5113949;27;20394;-70
2022/04/03 02:26:41;;;;;;;3.90;1.40;;;;;;;5.89;64.57;93678.44;5113451;27;20127;-70
2022/04/03 02:29:07;;;;;;;3.80;1.60;;;;;;;5.90;63.48;93672.34;5130701;27;20027;-70
2022/04/03 02:31:33;;;;;;;3.83;1.67;;;;;;;5.92;65.96;93664.47;5126485;27;20032;-71
2022/04/03 02:33:58;;;;;;;3.50;1.70;;;;;;;5.82;65.65;93661.84;5093311;28;20023;-70
2022/04/03 02:36:24;;;;;;;4.38;1.50;;;;;;;5.80;63.86;93669.72;5093190;28;20520;-70
2022/04/03 02:38:49;;;;;;;5.10;1.95;;;;;;;5.78;66.08;93679.31;5110330;28;20027;-70
2022/04/03 02:41:14;;;;;;;2.42;1.20;;;;;;;5.73;66.25;93676.28;5111491;28;20069;-70
2022/04/03 02:43:40;;;;;;;3.65;1.80;;;;;;;5.70;65.10;93681.69;5093174;28;20032;-70
2022/04/03 02:46:06;;;;;;;3.50;1.58;;;;;;;5.68;63.66;93690.50;5113542;28;20027;-70
2022/04/03 02:48:32;;;;;;;2.60;1.73;;;;;;;5.64;63.56;93689.94;5130514;27;20039;-70
2022/04/03 02:50:57;;;;;;;5.38;2.42;;;;;;;5.53;63.91;93677.13;5121760;28;20512;-70
2022/04/03 02:53:23;;;;;;;4.47;2.15;;;;;;;5.55;63.10;93698.41;5110053;28;20508;-70
2022/04/03 02:55:48;;;;;;;3.80;1.85;;;;;;;5.54;63.01;93689.03;5093233;28;20482;-70
2022/04/03 02:58:14;;;;;;;3.80;1.67;;;;;;;5.46;62.69;93673.38;5111230;28;20489;-70
2022/04/03 03:00:39;;;;;;;3.95;1.80;;;;;;;5.59;62.14;93690.31;5110032;28;20035;-70
2022/04/03 03:03:06;;;;;;;2.85;1.55;;;;;;;5.58;62.47;93703.31;5111172;28;20076;-70
2022/04/03 03:05:32;;;;;;;5.70;3.05;;;;;;;5.64;65.10;93705.41;5116083;28;20481;-70
2022/04/03 03:07:57;;;;;;;6.18;1.80;;;;;;;5.58;66.58;93701.56;5130596;28;20023;-71
2022/04/03 03:10:23;;;;;;;5.05;2.47;;;;;;;5.59;65.51;93707.53;5113236;28;20046;-70
2022/04/03 03:12:49;;;;;;;5.07;2.10;;;;;;;5.55;66.90;93706.16;5113246;28;20657;-69
2022/04/03 03:15:14;;;;;;;5.07;2.50;;;;;;;5.57;66.15;93704.25;5128097;28;20481;-70
2022/04/03 03:17:40;;;;;;;4.10;2.20;;;;;;;5.58;64.01;93706.72;5134212;27;20027;-70
2022/04/03 03:20:06;;;;;;;3.00;2.20;;;;;;;5.55;63.84;93701.81;5134530;27;20110;-70
2022/04/03 03:22:32;;;;;;;4.72;2.47;;;;;;;5.59;65.05;93717.81;5117110;27;20465;-70
2022/04/03 03:24:57;;;;;;;3.03;1.88;;;;;;;5.63;66.17;93716.66;5133042;27;20484;-70
2022/04/03 03:27:22;;;;;;;4.93;1.90;;;;;;;5.64;65.74;93714.91;5117092;27;20031;-70
2022/04/03 03:29:48;;;;;;;4.15;1.98;;;;;;;5.56;62.90;93707.78;5134286;27;20420;-70
2022/04/03 03:32:13;;;;;;;2.80;1.80;;;;;;;5.50;62.34;93708.28;5132070;27;20413;-70
2022/04/03 03:34:39;;;;;;;4.40;1.80;;;;;;;5.46;63.60;93712.03;5097527;28;20036;-70
2022/04/03 03:37:04;;;;;;;3.95;2.47;;;;;;;5.46;64.75;93717.16;5114712;28;20059;-70
2022/04/03 03:39:29;;;;;;;3.50;1.83;;;;;;;5.53;65.63;93718.31;5113469;28;20035;-70
2022/04/03 03:41:55;;;;;;;3.63;2.00;;;;;;;5.57;63.88;93720.53;5096420;28;20039;-70
2022/04/03 03:44:24;;;;;;;3.88;1.80;;;;;;;5.58;64.27;93729.09;5105398;27;20031;-70
2022/04/03 03:46:49;;;;;;;4.18;1.77;;;;;;;5.58;64.83;93724.75;5115454;27;20064;-70
2022/04/03 03:49:15;;;;;;;4.50;2.13;;;;;;;5.57;64.98;93723.13;5135002;27;20544;-70
2022/04/03 03:51:40;;;;;;;3.65;2.03;;;;;;;5.57;65.15;93724.84;5133680;27;20023;-70
2022/04/03 03:54:06;;;;;;;4.07;1.83;;;;;;;5.62;63.45;93733.03;5115694;27;20101;-69
2022/04/03 03:56:32;;;;;;;3.15;1.20;;;;;;;5.65;60.88;93735.38;5115207;27;20034;-69
2022/04/03 03:58:57;;;;;;;5.00;1.17;;;;;;;5.69;60.96;93736.78;5114422;28;20028;-69
2022/04/03 04:01:22;;;;;;;3.15;0.93;;;;;;;5.71;60.93;93741.78;5097090;27;20040;-70
2022/04/03 04:03:48;;;;;;;2.60;1.50;;;;;;;5.74;62.14;93747.53;5113144;28;20115;-70
2022/04/03 04:06:14;;;;;;;3.28;1.63;;;;;;;5.77;62.77;93757.59;5096162;28;20024;-70
2022/04/03 04:08:39;;;;;;;3.83;1.95;;;;;;;5.82;64.33;93760.63;5079010;28;20464;-70
2022/04/03 04:11:05;;;;;;;3.10;1.95;;;;;;;5.87;64.49;93762.00;5113060;28;20455;-70
2022/04/03 04:13:30;;;;;;;3.17;1.70;;;;;;;5.92;64.74;93773.56;5130852;27;20119;-70
2022/04/03 04:15:56;;;;;;;3.70;2.00;;;;;;;5.89;64.72;93770.44;5125029;27;20047;-70
2022/04/03 04:18:21;;;;;;;10.10;4.38;;;;;;;5.89;61.38;93771.25;5095790;28;20435;-70
2022/04/03 04:20:47;;;;;;;6.03;2.58;;;;;;;5.92;60.12;93770.16;5118547;27;20468;-70
2022/04/03 04:23:13;;;;;;;6.35;3.88;;;;;;;5.91;60.13;93789.16;5114292;27;20034;-72
2022/04/03 04:25:38;;;;;;;7.25;4.00;;;;;;;5.90;60.32;93798.63;5113478;27;20031;-69
2022/04/03 04:28:05;;;;;;;6.18;3.00;;;;;;;5.79;60.89;93794.38;5126683;27;20035;-72
2022/04/03 04:30:30;;;;;;;5.32;2.40;;;;;;;5.67;61.58;93792.75;5111165;27;20038;-70
2022/04/03 04:32:55;;;;;;;7.03;3.10;;;;;;;5.63;62.66;93809.41;5142544;27;20446;-70
2022/04/03 04:35:21;;;;;;;3.58;2.05;;;;;;;5.73;63.29;93805.16;5120216;27;20039;-69
2022/04/03 04:37:46;;;;;;;6.00;2.33;;;;;;;5.58;62.30;93799.47;5112987;27;20059;-69
2022/04/03 04:40:12;;;;;;;4.53;1.88;;;;;;;5.59;62.01;93800.28;5133019;27;20404;-69
2022/04/03 04:42:38;;;;;;;1.88;1.10;;;;;;;5.55;61.83;93802.28;5115986;27;20613;-69
2022/04/03 04:45:06;;;;;;;3.78;1.20;;;;;;;5.59;61.85;93808.00;5113523;27;20031;-69
2022/04/03 04:47:38;;;;;;;1.90;0.90;;;;;;;5.59;61.56;93810.59;5124465;27;20540;-69
2022/04/03 04:50:08;;;;;;;1.17;0.70;;;;;;;5.68;58.99;93812.41;5122744;27;20513;-69
2022/04/03 04:52:35;;;;;;;2.38;1.30;;;;;;;5.75;59.90;93817.94;5112220;27;20027;-69
2022/04/03 04:55:01;;;;;;;4.50;2.47;;;;;;;5.77;61.85;93811.72;5129839;27;20099;-68
2022/04/03 04:57:26;;;;;;;7.32;3.00;;;;;;;5.71;61.87;93812.19;5116990;27;20035;-69
2022/04/03 04:59:51;;;;;;;6.05;3.33;;;;;;;5.68;62.58;93812.41;5100598;27;20092;-68
2022/04/03 05:02:17;;;;;;;5.38;3.42;;;;;;;5.74;62.97;93821.41;5129560;27;20381;-68
2022/04/03 05:04:42;;;;;;;6.57;3.47;;;;;;;5.91;62.51;93833.00;5110536;27;20039;-68
2022/04/03 05:07:11;;;;;;;6.90;3.88;;;;;;;6.14;62.52;93820.84;5126733;27;20038;-69
2022/04/03 05:09:36;;;;;;;5.10;3.67;;;;;;;6.59;61.52;93826.56;5113606;27;20031;-68
2022/04/03 05:12:02;;;;;;;8.48;3.30;;;;;;;6.79;60.23;93827.50;5129403;27;20027;-68
2022/04/03 05:14:27;;;;;;;5.40;3.15;;;;;;;6.96;59.90;93820.91;5130140;27;20122;-69
2022/04/03 05:16:53;;;;;;;5.50;3.50;;;;;;;7.26;60.05;93827.03;5133396;27;20496;-69
2022/04/03 05:19:18;;;;;;;6.00;3.03;;;;;;;7.30;59.64;93842.13;5113390;27;20034;-69
2022/04/03 05:21:44;;;;;;;7.22;5.30;;;;;;;7.28;59.28;93840.63;5120257;27;20062;-69
2022/04/03 05:24:09;;;;;;;5.22;3.90;;;;;;;7.24;59.63;93828.91;5123089;27;20026;-69
2022/04/03 05:26:35;;;;;;;4.18;2.83;;;;;;;7.31;60.89;93854.09;5092867;27;20031;-69
2022/04/03 05:29:01;;;;;;;3.88;3.00;;;;;;;7.35;58.02;93852.06;5110948;27;20027;-69
2022/04/03 05:31:27;;;;;;;5.18;2.88;;;;;;;7.28;56.44;93849.19;5132219;27;20027;-69
2022/04/03 05:33:55;;;;;;;4.40;3.08;;;;;;;7.20;57.87;93850.78;5131043;27;20031;-69
2022/04/03 05:36:21;;;;;;;8.50;5.32;;;;;;;7.25;58.62;93856.41;5105395;27;20099;-68
2022/04/03 05:38:46;;;;;;;6.18;3.25;;;;;;;7.13;57.64;93861.66;5127418;27;20413;-68
2022/04/03 05:41:12;;;;;;;4.82;3.05;;;;;;;6.95;58.07;93855.44;5127728;27;20476;-68
2022/04/03 05:43:37;;;;;;;4.22;2.60;;;;;;;7.02;59.20;93848.81;5112712;27;20499;-68
2022/04/03 05:46:03;;;;;;;5.63;2.78;;;;;;;7.14;60.71;93849.56;5110252;27;20046;-68
2022/04/03 05:48:29;;;;;;;6.57;4.07;;;;;;;7.49;58.63;93859.44;5134166;27;20416;-68
2022/04/03 05:50:54;;;;;;;4.93;3.05;;;;;;;7.67;56.97;93853.66;5127653;27;20042;-68
2022/04/03 05:53:21;;;;;;;6.97;3.92;;;;;;;7.88;53.51;93856.94;5114391;27;20028;-69
2022/04/03 05:55:47;;;;;;;5.60;3.42;;;;;;;8.15;53.24;93871.00;5124816;27;20041;-68
2022/04/03 05:58:12;;;;;;;4.10;2.72;;;;;;;8.35;53.90;93867.47;5112464;27;20023;-68
2022/04/03 06:00:38;;;;;;;5.40;3.22;;;;;;;8.54;53.88;93866.69;5123493;27;20035;-68
2022/04/03 06:03:03;;;;;;;4.47;2.65;;;;;;;8.82;51.64;93869.38;5122375;27;20023;-69
2022/04/03 06:05:30;;;;;;;4.20;2.25;;;;;;;8.97;48.58;93869.75;5109642;27;20148;-69
2022/04/03 06:07:56;;;;;;;2.63;1.20;;;;;;;9.07;43.76;93858.41;5119915;27;20492;-69
2022/04/03 06:10:22;;;;;;;3.20;1.20;;;;;;;9.26;44.63;93865.28;5122090;27;20035;-71
2022/04/03 06:13:01;;;;;;;4.53;2.25;;;;;;;9.47;50.10;93875.47;5097109;27;20110;-71
2022/04/03 06:15:34;;;;;;;3.50;2.33;;;;;;;9.42;47.85;93874.22;5129208;27;20031;-71
2022/04/03 06:18:00;;;;;;;5.45;2.22;;;;;;;9.36;49.33;93889.41;5120226;27;20035;-72
2022/04/03 06:20:25;;;;;;;4.18;2.17;;;;;;;9.33;49.40;93891.44;5129570;27;20031;-71
2022/04/03 06:22:51;;;;;;;3.38;1.85;;;;;;;9.34;48.71;93899.09;5131663;27;20072;-72
2022/04/03 06:25:17;;;;;;;4.82;1.52;;;;;;;9.44;49.35;93893.06;5132438;27;20032;-71
2022/04/03 06:27:42;;;;;;;2.42;1.30;;;;;;;9.42;46.76;93895.81;5131696;27;20480;-71
2022/04/03 06:30:08;;;;;;;2.70;1.33;;;;;;;9.44;45.01;93904.25;5131300;27;20035;-76
2022/04/03 06:32:34;;;;;;;2.35;1.35;;;;;;;9.38;45.90;93892.66;5100338;28;20028;-72
2022/04/03 06:34:59;;;;;;;2.22;1.17;;;;;;;9.17;42.63;93903.25;5111187;28;20073;-69
2022/04/03 06:37:25;;;;;;;5.13;1.50;;;;;;;9.31;44.26;93908.94;5129482;27;20504;-70
2022/04/03 06:39:50;;;;;;;5.50;1.80;;;;;;;9.48;45.84;93907.38;5096084;27;20035;-70
2022/04/03 06:42:16;;;;;;;4.20;1.75;;;;;;;9.63;44.34;93909.34;5124888;27;20023;-69
2022/04/03 06:44:41;;;;;;;2.72;1.55;;;;;;;9.76;42.66;93919.41;5111227;28;20039;-71
2022/04/03 06:47:07;;;;;;;2.42;1.05;;;;;;;9.97;43.45;93918.34;5097644;27;20018;-70
2022/04/03 06:49:32;;;;;;;1.85;0.82;;;;;;;10.08;41.71;93918.13;5110335;28;20458;-71
2022/04/03 06:51:58;;;;;;;1.30;0.80;;;;;;;10.20;41.23;93911.78;5117018;28;20023;-72
2022/04/03 06:54:24;;;;;;;1.65;0.80;;;;;;;10.49;41.86;93923.78;5112527;28;20035;-72
2022/04/03 06:56:51;;;;;;;1.25;0.50;;;;;;;10.62;38.47;93921.63;5130458;27;20031;-72
2022/04/03 06:59:16;;;;;;;1.52;0.40;;;;;;;10.63;38.08;93918.06;5130367;28;20034;-71
2022/04/03 07:01:42;;;;;;;0.88;0.50;;;;;;;10.70;37.94;93928.69;5124905;27;20023;-72
2022/04/03 07:04:07;;;;;;;1.30;0.50;;;;;;;10.62;39.51;93939.81;5130225;28;20031;-74
2022/04/03 07:06:33;;;;;;;1.27;0.60;;;;;;;10.55;40.22;93948.34;5130434;27;20023;-70
2022/04/03 07:08:58;;;;;;;1.63;0.75;;;;;;;10.51;40.44;93946.03;5112148;27;20450;-70
2022/04/03 07:11:23;;;;;;;1.00;0.55;;;;;;;10.38;39.40;93955.97;5129572;27;20370;-69
2022/04/03 07:13:49;;;;;;;1.95;0.50;;;;;;;10.25;39.91;93958.06;5109726;28;20035;-69
2022/04/03 07:16:15;;;;;;;2.08;1.05;;;;;;;10.18;40.39;93975.19;5106106;28;20035;-71
2022/04/03 07:18:40;;;;;;;3.25;1.10;;;;;;;10.08;41.32;93975.22;5129123;28;20024;-69
2022/04/03 07:21:06;;;;;;;2.85;0.80;;;;;;;9.79;41.75;93973.59;5077771;28;20028;-70
2022/04/03 07:23:31;;;;;;;14.50;9.63;;;;;;;9.48;42.74;93980.78;5090134;28;20028;-71
2022/04/03 07:25:57;;;;;;;5.68;3.65;;;;;;;9.35;43.22;93981.06;5105590;28;20096;-74
2022/04/03 07:28:22;;;;;;;1.00;0.60;;;;;;;9.42;43.67;93993.47;5132071;27;20030;-70
2022/04/03 07:30:48;;;;;;;1.20;0.50;;;;;;;9.37;43.84;94001.69;5132224;27;20573;-70
2022/04/03 07:33:14;;;;;;;0.80;0.50;;;;;;;9.20;43.80;94000.63;5108544;28;20481;-72
2022/04/03 07:35:40;;;;;;;2.47;0.77;;;;;;;9.17;43.71;94009.50;5093318;28;20509;-72
2022/04/03 07:38:05;;;;;;;1.17;0.70;;;;;;;9.09;43.42;94009.34;5110387;28;20020;-69
2022/04/03 07:40:31;;;;;;;1.13;0.57;;;;;;;8.91;43.92;94006.66;5096268;28;20412;-69
2022/04/03 07:42:56;;;;;;;0.90;0.40;;;;;;;8.91;44.54;94006.66;5125535;27;20299;-75
2022/04/03 07:45:22;;;;;;;1.88;1.20;;;;;;;8.74;45.18;94007.31;5128183;28;20124;-70
2022/04/03 07:47:49;;;;;;;2.35;1.40;;;;;;;8.75;46.50;94000.34;5133908;27;20026;-71
2022/04/03 07:50:15;;;;;;;1.95;1.00;;;;;;;8.69;46.38;93997.38;5150148;27;20034;-71
2022/04/03 07:52:41;;;;;;;1.38;0.80;;;;;;;8.78;47.08;94000.91;5139375;27;20049;-72
2022/04/03 07:55:10;;;;;;;3.10;1.30;;;;;;;8.81;45.68;93990.28;5123474;28;20027;-72
2022/04/03 07:57:37;;;;;;;2.85;1.15;;;;;;;8.69;45.91;94001.69;5101979;28;20480;-72
2022/04/03 08:00:06;;;;;;;2.33;1.40;;;;;;;8.76;44.26;94004.59;5112419;28;20031;-68
2022/04/03 08:02:33;;;;;;;3.45;2.58;;;;;;;8.71;44.95;93995.44;5118794;28;20558;-71
2022/04/03 08:04:58;;;;;;;1.90;1.00;;;;;;;8.76;43.32;94015.75;5103265;27;20031;-71
2022/04/03 08:07:34;;;;;;;2.50;1.20;;;;;;;8.74;43.56;94007.31;5133245;27;20031;-72
2022/04/03 08:09:59;;;;;;;3.38;1.20;;;;;;;8.66;44.16;94010.59;5131034;27;20041;-72
2022/04/03 08:12:25;;;;;;;2.60;1.58;;;;;;;8.73;43.17;94016.84;5134046;27;20027;-72
2022/04/03 08:14:50;;;;;;;4.18;2.20;;;;;;;8.77;43.05;94017.38;5133160;27;20035;-72
2022/04/03 08:17:16;;;;;;;1.88;1.05;;;;;;;8.61;43.09;94015.34;5132869;27;20408;-72
2022/04/03 08:19:43;;;;;;;1.67;0.60;;;;;;;8.73;43.01;94018.63;5134644;27;20501;-72
2022/04/03 08:22:08;;;;;;;3.88;0.90;;;;;;;8.85;42.25;94021.91;5133319;27;20031;-72
2022/04/03 08:24:33;;;;;;;2.25;1.17;;;;;;;8.76;43.18;94018.34;5134536;27;20031;-72
2022/04/03 08:26:59;;;;;;;2.58;1.05;;;;;;;8.79;43.44;94025.84;5133130;27;20024;-73
2022/04/03 08:29:24;;;;;;;0.70;0.40;;;;;;;8.80;41.81;94019.69;5133085;27;20031;-73
2022/04/03 08:31:50;;;;;;;3.05;1.77;;;;;;;8.83;42.35;94014.28;5115945;27;20528;-72
2022/04/03 08:34:15;;;;;;;2.47;1.20;;;;;;;8.81;42.08;94008.41;5134181;27;20080;-72
2022/04/03 08:36:40;;;;;;;1.50;0.90;;;;;;;8.78;42.72;94000.91;5132885;27;20091;-73
2022/04/03 08:39:07;;;;;;;2.42;1.10;;;;;;;8.83;41.43;94009.09;5132930;27;20027;-72
2022/04/03 08:41:32;;;;;;;3.55;2.08;;;;;;;8.88;42.86;94019.84;5132894;27;20051;-72
2022/04/03 08:43:58;;;;;;;4.00;2.65;;;;;;;8.98;43.68;94021.63;5098692;27;20424;-73
2022/04/03 08:46:23;;;;;;;2.60;1.83;;;;;;;9.04;43.89;94023.69;5115848;27;20466;-71
2022/04/03 08:48:48;;;;;;;2.75;1.27;;;;;;;9.08;43.62;94032.78;5132746;27;20096;-71
2022/04/03 08:51:14;;;;;;;1.63;0.80;;;;;;;9.13;41.73;94033.22;5132976;27;20553;-71
2022/04/03 08:53:39;;;;;;;1.30;0.70;;;;;;;9.13;41.97;94025.44;5115548;27;20496;-71
2022/04/03 08:56:05;;;;;;;1.20;0.70;;;;;;;9.21;42.30;94033.34;5115544;27;20031;-71
2022/04/03 08:58:31;;;;;;;2.10;1.20;;;;;;;9.16;42.29;94041.56;5132610;27;20052;-71
2022/04/03 09:00:56;;;;;;;2.67;1.20;;;;;;;9.13;43.14;94035.81;5132605;27;20030;-71
2022/04/03 09:03:21;;;;;;;4.95;3.20;;;;;;;9.09;43.50;94043.03;5132487;27;20030;-71
2022/04/03 09:05:47;;;;;;;3.55;1.60;;;;;;;9.14;42.56;94043.44;5115418;27;20039;-71
2022/04/03 09:08:13;;;;;;;1.13;0.60;;;;;;;9.11;42.30;94051.50;5132518;27;20080;-71
2022/04/03 09:10:41;;;;;;;1.25;0.60;;;;;;;9.18;41.87;94049.16;5129721;27;20046;-71
2022/04/03 09:13:06;;;;;;;1.60;0.70;;;;;;;9.15;43.84;94039.91;5115007;27;20094;-71
2022/04/03 09:15:32;;;;;;;2.08;0.60;;;;;;;9.08;43.52;94050.94;5131756;27;20247;-71
2022/04/03 09:18:01;;;;;;;0.98;0.50;;;;;;;8.81;42.33;94039.47;5132137;27;20034;-71
2022/04/03 09:20:34;;;;;;;1.50;0.50;;;;;;;8.89;43.77;94044.00;5115321;27;20084;-72
2022/04/03 09:23:04;;;;;;;1.77;0.50;;;;;;;9.01;43.95;94049.84;5098202;27;20467;-72
2022/04/03 09:25:38;;;;;;;1.15;0.40;;;;;;;9.11;42.07;94053.25;5115072;27;20037;-72
2022/04/03 09:28:11;;;;;;;0.85;0.60;;;;;;;9.10;40.63;94046.44;5115971;27;20473;-71
2022/04/03 09:30:44;;;;;;;0.70;0.40;;;;;;;9.22;41.28;94053.13;5131944;27;20093;-71
2022/04/03 09:33:10;;;;;;;1.58;0.50;;;;;;;9.29;39.50;94056.81;5133123;27;20023;-71
2022/04/03 09:35:58;;;;;;;0.70;0.50;;;;;;;9.43;41.54;94049.56;5114664;27;20061;-71
2022/04/03 09:38:27;;;;;;;2.53;1.42;;;;;;;9.51;40.83;94050.50;5131816;27;20552;-71
2022/04/03 09:40:52;;;;;;;0.80;0.43;;;;;;;9.32;40.10;94061.72;5131701;27;20120;-71
2022/04/03 09:43:25;;;;;;;1.50;0.75;;;;;;;9.33;42.25;94058.19;5114663;27;20031;-71
2022/04/03 09:45:52;;;;;;;2.13;1.08;;;;;;;9.48;41.00;94057.75;5131772;27;20042;-71
2022/04/03 09:48:19;;;;;;;1.30;0.80;;;;;;;9.53;40.45;94064.16;5114545;27;20110;-71
2022/04/03 09:51:03;;;;;;;0.95;0.50;;;;;;;9.65;38.99;94067.41;5131725;27;20035;-72
2022/04/03 09:53:44;;;;;;;1.15;0.50;;;;;;;9.69;38.85;94073.94;5132662;27;20058;-72
2022/04/03 09:56:10;;;;;;;2.85;0.98;;;;;;;9.69;38.92;94068.75;5131290;27;20038;-71
2022/04/03 09:58:51;;;;;;;0.95;0.55;;;;;;;9.78;38.11;94078.31;5114322;27;20041;-71
2022/04/03 10:01:27;;;;;;;1.83;1.10;;;;;;;9.75;39.29;94073.41;5133004;27;20042;-71
2022/04/03 10:03:52;;;;;;;12.70;5.28;;;;;;;9.92;42.35;94094.38;5131388;27;20239;-71
2022/04/03 10:06:18;;;;;;;3.53;1.83;;;;;;;9.90;43.63;94073.75;5114335;27;20461;-71
2022/04/03 10:08:47;;;;;;;3.38;1.13;;;;;;;9.94;43.12;94087.25;5114055;27;20042;-71
2022/04/03 10:11:13;;;;;;;2.30;1.33;;;;;;;9.85;45.15;94079.38;5114384;27;20221;-71
2022/04/03 10:13:39;;;;;;;5.22;1.55;;;;;;;9.84;45.07;94084.72;5114125;27;20496;-71
2022/04/03 10:16:04;;;;;;;6.90;1.70;;;;;;;9.81;44.93;94083.22;5114002;27;20035;-71
2022/04/03 10:18:30;;;;;;;4.78;1.27;;;;;;;9.91;44.71;94087.53;5113980;27;20104;-71
2022/04/03 10:20:55;;;;;;;2.33;1.10;;;;;;;9.99;42.04;94090.25;5097018;27;20034;-71
2022/04/03 10:23:21;;;;;;;3.42;1.00;;;;;;;9.99;42.67;94079.88;5131013;27;20118;-71
2022/04/03 10:25:47;;;;;;;2.78;1.10;;;;;;;9.85;42.55;94084.56;5113475;28;20396;-72
2022/04/03 10:28:13;;;;;;;3.58;2.10;;;;;;;9.86;42.21;94085.38;5113556;27;20035;-71
2022/04/03 10:30:43;;;;;;;8.35;6.38;;;;;;;9.92;39.96;94094.38;5130847;27;20031;-71
2022/04/03 10:33:19;;;;;;;2.63;1.80;;;;;;;9.96;39.36;94086.16;5130970;27;20489;-71
2022/04/03 10:35:49;;;;;;;4.13;2.97;;;;;;;9.93;39.87;94085.63;5114056;27;20489;-71
2022/04/03 10:38:14;;;;;;;2.75;1.00;;;;;;;9.90;37.52;94080.72;5130777;27;20023;-71
2022/04/03 10:40:40;;;;;;;1.15;0.50;;;;;;;9.84;37.53;94077.75;5130748;27;20126;-71
2022/04/03 10:43:06;;;;;;;2.40;1.40;;;;;;;10.01;38.39;94077.97;5113627;28;20499;-71
2022/04/03 10:45:43;;;;;;;3.50;2.00;;;;;;;10.16;38.98;94091.28;5130491;27;20039;-71
2022/04/03 10:48:21;;;;;;;2.35;1.45;;;;;;;10.26;40.84;94087.72;5130744;27;20031;-72
2022/04/03 10:51:11;;;;;;;2.63;1.60;;;;;;;10.35;41.16;94090.44;5130553;27;20417;-71
2022/04/03 10:53:48;;;;;;;4.20;2.47;;;;;;;10.43;40.36;94080.97;5130953;28;20053;-71
2022/04/03 10:56:24;;;;;;;2.90;1.60;;;;;;;10.42;40.45;94071.56;5130755;28;20146;-71
2022/04/03 10:58:50;;;;;;;3.85;2.30;;;;;;;10.50;41.72;94078.59;5113534;28;20081;-71
2022/04/03 11:01:32;;;;;;;6.03;3.78;;;;;;;10.63;40.68;94078.28;5130650;28;20056;-71
2022/04/03 11:04:07;;;;;;;3.08;2.05;;;;;;;10.70;39.27;94072.38;5130500;28;20024;-71
2022/04/03 11:06:34;;;;;;;3.30;1.92;;;;;;;10.79;38.96;94075.06;5131634;27;20035;-71
2022/04/03 11:09:03;;;;;;;5.32;2.78;;;;;;;10.76;40.21;94070.16;5130356;28;20493;-72
2022/04/03 11:11:40;;;;;;;4.45;2.17;;;;;;;10.88;40.17;94087.16;5113668;28;20050;-71
2022/04/03 11:14:07;;;;;;;4.35;3.60;;;;;;;10.83;40.86;94100.56;5130390;28;20527;-72
2022/04/03 11:16:49;;;;;;;11.60;9.57;;;;;;;10.77;41.64;94108.16;5130304;28;20033;-72
2022/04/03 11:19:35;;;;;;;18.52;16.83;;;;;;;10.50;42.55;94105.41;5113221;28;20454;-71
2022/04/03 11:22:01;;;;;;;15.40;13.90;;;;;;;10.48;44.63;94101.31;5114248;28;20020;-71
2022/04/03 11:24:26;;;;;;;20.55;14.88;;;;;;;10.40;44.96;94107.22;5130349;28;20468;-71
2022/04/03 11:26:52;;;;;;;4.68;2.70;;;;;;;10.29;44.86;94108.22;5131493;27;20019;-71
2022/04/03 11:29:18;;;;;;;5.07;3.58;;;;;;;10.14;46.71;94120.00;5130206;28;20054;-71
2022/04/03 11:31:45;;;;;;;5.80;4.20;;;;;;;10.15;47.61;94132.00;5130160;28;20020;-71
2022/04/03 11:34:12;;;;;;;8.38;5.95;;;;;;;10.13;46.52;94140.91;5096364;28;20129;-71
2022/04/03 11:36:37;;;;;;;16.92;9.98;;;;;;;9.97;46.48;94139.72;5129822;28;20122;-72
2022/04/03 11:39:05;;;;;;;16.75;10.50;;;;;;;9.97;46.78;94162.22;5116283;27;20027;-71